Round Mountain, TX

11:29 AM CDT on October 02, 2014 (GMT -0500)
Lago Vista | Change Station
CLOSE
Current Station
Airport
Location: Lago Vista,
Elevation: 375 m
Nearby Weather Stations

Elev 375 m 30.50 °N, 97.97 °W | Updated 14 minutes ago

Overcast
Overcast
27 °C
Feels Like 29 °C
N
17
Wind Variable Wind from SSW
Gusts 32 km/h

Today
High -- | Low -- °C
--% Chance of Precip.
Yesterday
High -- | Low -- °C
Precip. -- mm
7:27 AM 7:17 PM
First Quarter, 60% visible
Pressure 1013 hPa
Visibility 11.3 kilometers
Clouds Scattered Clouds 457 m
Overcast 762 m
Heat Index 29 °C
Dew Point 22 °C
Humidity 74%
Rainfall 0.0 mm
Snow Depth Not available.
UV 2 out of 12
Pollen 7.70 out of 12
Air Quality Not available.
Flu Activity Not available.
METAR KRYW 021615Z AUTO 20009G17KT 7SM SCT015 OVC025 27/22 A2991 RMK AO2 T02710222

More Conditions Fewer Conditions

Pressure 1013 hPa
Visibility 11.3 kilometers
Clouds Scattered Clouds 457 m
Overcast 762 m
Heat Index 29 °C
Dew Point 22 °C
Humidity 74%
Rainfall 0.0 mm
Snow Depth Not available.
UV 2 out of 12
Pollen 7.70 out of 12
Air Quality Not available.
Flu Activity Not available.
METAR KRYW 021615Z AUTO 20009G17KT 7SM SCT015 OVC025 27/22 A2991 RMK AO2 T02710222

More Conditions Fewer Conditions

10-Day Weather Forecast

Almanac

Astronomy

Oct. 02, 2014 Rise Set
Actual Time 7:27 AM CDT 7:17 PM CDT
Civil Twilight 7:03 AM CDT 7:41 PM CDT
Nautical Twilight 6:36 AM CDT 8:09 PM CDT
Astronomical Twilight 6:08 AM CDT 8:37 PM CDT
Moon 3:04 PM CDT 1:09 AM CDT
Length of Visible Light 12h 37m
Length of Day
11h 49m
Tomorrow will be 1m 49s shorter.
First Quarter, 60% of the Moon is Illuminated
Today
First Quarter
Oct 8
Full
Oct 15
Last Quarter
Oct 23
New
Oct 30
First Quarter

Today's Extremes

State Highs State Lows

Community

WunderPhotos

Upload Photos

1,758,290 photos uploaded!

WunderBlogs® & News

Nearby

Snow Depth

Station Depth Elevation
No new snow has been reported.

Earthquake Activity

City Distance Mag. Time & Date
No recent earthquake activity has been reported nearby.
Minimum magnitude displayed is 2.5.

Coastal Water Temperatures

Place Temperature
No Stations Reporting

Nearby Weather Stations